Eastabuchie, Mississippi
Current Conditions -  °F | °C
As of 6:35 PM on Thursday 18 Dec 2014 (Local Time) from KPIB Reporting Station
Overcast Overcast  
Wind Chill: 46°   Ceiling: 2500
Heat Index: 48°   Visibility: 5mi
Dew Point: 45°   Wind: 5mph
Humidity: 87%   Direction: 40°NE
Pressure: 30.17"   Gusts: NA
Location:  31.44°N, 89.28°W
Report Text: KPIB 190035Z AUTO 04004KT 5SM OVC025 09/07 A3017 RMK AO1
Loading
Personal Weather Stations






























Interactive Weather Map New forecast layout! Learn more

10-Day Weather Forecast

Advertisements
Track Severe Weather on mobile